Time;durP1;ratioP1;P1;durP2;ratioP2;P2;SDS_P1;SDS_P2;PMS_P1;PMS_P2;Temp;Humidity;BMP_temperature;BMP_pressure;BME280_temperature;BME280_humidity;BME280_pressure;Samples;Min_cycle;Max_cycle;Signal;HPM_P1;HPM_P2
2024/04/09 00:00:46;;;;;;;5.78;2.30;;;19.60;93.00;;;;;;5450901;26;20002;-66
2024/04/09 00:03:12;;;;;;;6.15;2.83;;;19.60;93.20;;;;;;5451247;26;20823;-66
2024/04/09 00:05:41;;;;;;;10.02;2.70;;;19.60;93.50;;;;;;5451375;26;20470;-66
2024/04/09 00:08:13;;;;;;;8.23;2.65;;;19.60;93.40;;;;;;5448010;26;20002;-67
2024/04/09 00:10:40;;;;;;;5.15;2.33;;;19.50;93.50;;;;;;5447222;26;20002;-64
2024/04/09 00:13:06;;;;;;;10.60;3.08;;;19.50;93.60;;;;;;5448360;26;19995;-64
2024/04/09 00:15:33;;;;;;;5.50;2.47;;;19.40;93.90;;;;;;5454236;26;20001;-64
2024/04/09 00:18:11;;;;;;;7.50;2.63;;;19.40;94.10;;;;;;5448859;26;20492;-65
2024/04/09 00:20:43;;;;;;;7.47;2.60;;;19.30;94.10;;;;;;5421313;26;20722;-64
2024/04/09 00:23:18;;;;;;;10.35;3.65;;;19.30;93.90;;;;;;5418895;26;20515;-65
2024/04/09 00:25:45;;;;;;;6.50;3.05;;;19.20;93.80;;;;;;5417634;26;19998;-64
2024/04/09 00:28:11;;;;;;;10.85;3.05;;;19.20;93.90;;;;;;5452298;26;20010;-64
2024/04/09 00:30:39;;;;;;;7.47;2.42;;;19.20;94.20;;;;;;5451464;26;20005;-64
2024/04/09 00:33:07;;;;;;;5.32;2.50;;;19.10;94.50;;;;;;5447584;26;20010;-64
2024/04/09 00:35:33;;;;;;;5.22;2.67;;;19.10;94.50;;;;;;5452346;26;20007;-64
2024/04/09 00:37:59;;;;;;;5.15;2.97;;;19.10;94.40;;;;;;5450589;26;19999;-64
2024/04/09 00:40:26;;;;;;;6.47;3.17;;;19.10;94.30;;;;;;5445836;26;20013;-64
2024/04/09 00:42:57;;;;;;;9.60;2.72;;;19.00;94.20;;;;;;5446710;26;19999;-65
2024/04/09 00:45:23;;;;;;;5.00;2.67;;;19.00;94.20;;;;;;5449619;26;20013;-65
2024/04/09 00:47:50;;;;;;;8.85;3.33;;;19.10;94.30;;;;;;5447350;26;20481;-65
2024/04/09 00:50:19;;;;;;;8.80;3.20;;;19.10;94.70;;;;;;5448417;26;20350;-64
2024/04/09 00:52:46;;;;;;;6.85;2.63;;;19.00;94.70;;;;;;5446257;26;20074;-65
2024/04/09 00:55:15;;;;;;;5.80;2.83;;;18.90;94.50;;;;;;5450979;26;20486;-65
2024/04/09 00:57:47;;;;;;;8.27;3.60;;;19.00;94.60;;;;;;5448108;26;20002;-64
2024/04/09 01:00:16;;;;;;;8.57;3.25;;;18.90;94.80;;;;;;5449846;26;20078;-64
2024/04/09 01:02:42;;;;;;;8.48;2.92;;;18.90;94.90;;;;;;5452153;26;20013;-65
2024/04/09 01:05:10;;;;;;;7.00;3.15;;;18.90;95.10;;;;;;5450434;26;20014;-65
2024/04/09 01:07:37;;;;;;;7.07;2.95;;;18.90;95.30;;;;;;5451707;26;20015;-64
2024/04/09 01:10:04;;;;;;;8.40;2.95;;;18.80;95.00;;;;;;5449150;26;20002;-64
2024/04/09 01:12:30;;;;;;;10.85;3.65;;;18.80;95.20;;;;;;5452012;26;20002;-64
2024/04/09 01:14:56;;;;;;;6.45;3.20;;;18.80;95.00;;;;;;5449709;26;19998;-65
2024/04/09 01:17:24;;;;;;;8.32;3.08;;;18.80;95.10;;;;;;5450450;26;20005;-65
2024/04/09 01:19:49;;;;;;;8.90;3.00;;;18.80;95.10;;;;;;5449313;26;20002;-64
2024/04/09 01:22:15;;;;;;;9.52;3.28;;;18.80;95.40;;;;;;5452168;26;20007;-64
2024/04/09 01:24:41;;;;;;;5.68;2.92;;;18.70;95.50;;;;;;5448607;26;20006;-64
2024/04/09 01:27:12;;;;;;;7.68;3.20;;;18.70;95.30;;;;;;5450036;26;20018;-64
2024/04/09 01:29:39;;;;;;;9.18;3.00;;;18.70;95.30;;;;;;5450245;26;20441;-64
2024/04/09 01:32:06;;;;;;;8.18;2.95;;;18.70;95.60;;;;;;5449193;26;19991;-64
2024/04/09 01:34:35;;;;;;;8.82;4.65;;;18.70;95.40;;;;;;5448134;26;19991;-64
2024/04/09 01:37:04;;;;;;;8.80;3.00;;;18.70;95.30;;;;;;5450772;26;20337;-64
2024/04/09 01:39:35;;;;;;;5.65;2.55;;;18.70;95.30;;;;;;5450022;26;20075;-64
2024/04/09 01:42:03;;;;;;;5.93;3.15;;;18.70;95.30;;;;;;5417881;26;20013;-64
2024/04/09 01:44:28;;;;;;;9.05;3.25;;;18.70;95.30;;;;;;5449862;26;19994;-65
2024/04/09 01:46:54;;;;;;;7.93;3.40;;;18.70;95.40;;;;;;5446626;26;20006;-65
2024/04/09 01:49:20;;;;;;;11.75;3.10;;;18.70;95.30;;;;;;5449069;26;20435;-64
2024/04/09 01:51:46;;;;;;;6.97;2.85;;;18.70;95.30;;;;;;5447623;26;20026;-64
2024/04/09 01:54:12;;;;;;;7.22;3.35;;;18.70;95.50;;;;;;5450053;26;20013;-64
2024/04/09 01:56:38;;;;;;;6.47;2.83;;;18.70;95.50;;;;;;5446296;26;20071;-64
2024/04/09 01:59:05;;;;;;;6.45;3.03;;;18.70;95.50;;;;;;5448761;26;20034;-65
2024/04/09 02:01:31;;;;;;;4.93;3.03;;;18.70;95.60;;;;;;5444809;26;19994;-64
2024/04/09 02:03:57;;;;;;;6.13;3.30;;;18.60;95.50;;;;;;5448208;26;20540;-65
2024/04/09 02:06:24;;;;;;;5.57;3.75;;;18.60;95.40;;;;;;5446892;26;19998;-64
2024/04/09 02:08:50;;;;;;;9.20;3.38;;;18.60;95.40;;;;;;5444119;26;20043;-64
2024/04/09 02:11:17;;;;;;;8.93;2.85;;;18.60;95.50;;;;;;5447595;26;20009;-64
2024/04/09 02:13:47;;;;;;;5.30;2.88;;;18.60;95.50;;;;;;5443764;26;20042;-64
2024/04/09 02:16:13;;;;;;;5.53;2.95;;;18.60;95.60;;;;;;5415029;26;20046;-64
2024/04/09 02:18:40;;;;;;;8.35;3.20;;;18.60;95.90;;;;;;5443213;26;20156;-64
2024/04/09 02:21:09;;;;;;;4.25;3.10;;;18.70;95.80;;;;;;5448365;26;20018;-64
2024/04/09 02:23:37;;;;;;;5.53;2.70;;;18.60;96.20;;;;;;5443435;26;20010;-64
2024/04/09 02:26:03;;;;;;;5.40;3.05;;;18.60;96.30;;;;;;5447241;26;19998;-64
2024/04/09 02:28:29;;;;;;;7.25;3.08;;;18.50;96.60;;;;;;5447576;26;20033;-64
2024/04/09 02:30:56;;;;;;;7.30;2.78;;;18.50;96.30;;;;;;5446713;26;20031;-64
2024/04/09 02:33:22;;;;;;;6.53;3.00;;;18.50;96.50;;;;;;5446143;26;20033;-64
2024/04/09 02:35:59;;;;;;;6.63;3.13;;;18.50;96.50;;;;;;5446265;26;20022;-65
2024/04/09 02:38:26;;;;;;;5.57;3.10;;;18.50;96.60;;;;;;5414530;26;20821;-64
2024/04/09 02:40:53;;;;;;;7.25;2.88;;;18.50;96.70;;;;;;5444701;26;20014;-64
2024/04/09 02:43:22;;;;;;;4.35;3.17;;;18.50;96.90;;;;;;5446550;26;20017;-64
2024/04/09 02:45:49;;;;;;;6.00;2.92;;;18.40;97.10;;;;;;5446910;26;19994;-65
2024/04/09 02:48:15;;;;;;;6.50;2.97;;;18.40;97.20;;;;;;5448606;26;20513;-65
2024/04/09 02:50:42;;;;;;;6.32;2.97;;;18.40;97.00;;;;;;5444623;26;20561;-65
2024/04/09 02:53:09;;;;;;;4.88;3.13;;;18.50;97.10;;;;;;5447589;26;19991;-64
2024/04/09 02:55:36;;;;;;;5.43;3.15;;;18.40;97.30;;;;;;5445188;26;20012;-64
2024/04/09 02:58:03;;;;;;;3.33;2.65;;;18.50;97.30;;;;;;5446606;26;19998;-64
2024/04/09 03:00:30;;;;;;;5.07;2.80;;;18.50;97.70;;;;;;5448085;26;20016;-64
2024/04/09 03:02:58;;;;;;;6.28;2.75;;;18.40;97.90;;;;;;5444526;26;20044;-64
2024/04/09 03:05:29;;;;;;;5.50;3.53;;;18.40;97.90;;;;;;5442871;26;19999;-64
2024/04/09 03:07:55;;;;;;;8.73;3.22;;;18.30;98.10;;;;;;5444127;26;19995;-64
2024/04/09 03:10:21;;;;;;;6.68;3.05;;;18.30;98.10;;;;;;5446705;26;20014;-64
2024/04/09 03:12:48;;;;;;;3.72;2.90;;;18.30;98.00;;;;;;5445687;26;20002;-64
2024/04/09 03:15:14;;;;;;;6.35;3.03;;;18.30;98.10;;;;;;5447554;26;20009;-64
2024/04/09 03:17:43;;;;;;;8.68;3.53;;;18.30;98.20;;;;;;5444037;26;19995;-65
2024/04/09 03:20:13;;;;;;;4.85;2.80;;;18.30;98.30;;;;;;5444495;26;19994;-64
2024/04/09 03:22:39;;;;;;;4.05;2.58;;;18.30;98.30;;;;;;5443616;26;20006;-64
2024/04/09 03:25:06;;;;;;;5.20;2.85;;;18.30;98.60;;;;;;5447111;26;20019;-64
2024/04/09 03:27:32;;;;;;;5.00;2.83;;;18.30;98.70;;;;;;5446890;26;19994;-64
2024/04/09 03:29:59;;;;;;;4.30;2.83;;;18.30;98.80;;;;;;5445902;26;20017;-64
2024/04/09 03:32:25;;;;;;;5.20;2.92;;;18.30;98.80;;;;;;5442686;26;20979;-64
2024/04/09 03:34:51;;;;;;;8.15;3.28;;;18.30;98.90;;;;;;5444941;26;20006;-64
2024/04/09 03:37:17;;;;;;;4.70;2.65;;;18.30;99.00;;;;;;5445139;26;19994;-64
2024/04/09 03:39:43;;;;;;;5.40;2.75;;;18.30;99.00;;;;;;5446184;26;20002;-64
2024/04/09 03:42:09;;;;;;;6.78;2.70;;;18.30;99.00;;;;;;5444808;26;20426;-64
2024/04/09 03:44:35;;;;;;;9.63;3.25;;;18.30;99.30;;;;;;5447325;26;20003;-65
2024/04/09 03:47:07;;;;;;;4.78;2.72;;;18.20;99.40;;;;;;5444582;26;20007;-65
2024/04/09 03:49:34;;;;;;;3.58;2.90;;;18.20;99.50;;;;;;5447764;26;20003;-64
2024/04/09 03:52:01;;;;;;;5.07;2.58;;;18.20;99.70;;;;;;5443712;26;20135;-64
2024/04/09 03:54:27;;;;;;;4.97;3.10;;;18.20;99.80;;;;;;5441712;26;20002;-64
2024/04/09 03:56:53;;;;;;;5.20;3.15;;;18.10;99.90;;;;;;5443351;26;19998;-64
2024/04/09 03:59:19;;;;;;;4.95;3.22;;;18.10;99.90;;;;;;5444361;26;19995;-64
2024/04/09 04:01:45;;;;;;;6.70;2.85;;;18.10;99.90;;;;;;5444100;26;20005;-64
2024/04/09 04:04:13;;;;;;;4.28;3.08;;;18.20;99.90;;;;;;5444738;26;20092;-64
2024/04/09 04:06:39;;;;;;;6.90;3.00;;;18.10;99.90;;;;;;5445394;26;20017;-65
2024/04/09 04:09:05;;;;;;;5.03;2.78;;;18.10;99.90;;;;;;5447048;26;19991;-64
2024/04/09 04:11:31;;;;;;;5.50;2.70;;;18.20;99.90;;;;;;5448104;26;19998;-64
2024/04/09 04:13:57;;;;;;;6.38;3.30;;;18.20;99.90;;;;;;5416532;26;20466;-64
2024/04/09 04:16:23;;;;;;;5.05;3.20;;;18.10;99.90;;;;;;5444273;26;20007;-65
2024/04/09 04:18:49;;;;;;;4.53;2.95;;;18.10;99.90;;;;;;5445761;26;20017;-65
2024/04/09 04:21:20;;;;;;;4.38;2.70;;;18.10;99.90;;;;;;5449367;26;20006;-64
2024/04/09 04:23:47;;;;;;;4.30;3.10;;;18.10;99.90;;;;;;5447325;26;19998;-64
2024/04/09 04:26:16;;;;;;;4.57;2.70;;;18.10;99.90;;;;;;5445701;26;20009;-64
2024/04/09 04:28:45;;;;;;;5.47;3.17;;;18.00;99.90;;;;;;5445252;26;20050;-64
2024/04/09 04:31:19;;;;;;;3.42;2.30;;;18.10;99.90;;;;;;5445286;26;19999;-64
2024/04/09 04:33:47;;;;;;;4.80;3.05;;;18.00;99.90;;;;;;5445007;26;20004;-64
2024/04/09 04:36:14;;;;;;;2.95;2.60;;;18.10;99.90;;;;;;5447265;26;20410;-64
2024/04/09 04:38:40;;;;;;;5.10;3.20;;;18.10;99.90;;;;;;5444322;26;19995;-64
2024/04/09 04:41:06;;;;;;;6.30;2.65;;;18.10;99.90;;;;;;5446328;26;19998;-64
2024/04/09 04:43:33;;;;;;;6.20;3.20;;;18.10;99.90;;;;;;5449138;26;20090;-64
2024/04/09 04:46:00;;;;;;;4.75;2.88;;;18.00;99.90;;;;;;5449300;26;20016;-65
2024/04/09 04:48:29;;;;;;;9.65;3.05;;;18.00;99.90;;;;;;5448788;26;19994;-64
2024/04/09 04:50:55;;;;;;;5.10;3.08;;;18.00;99.90;;;;;;5443988;26;20755;-64
2024/04/09 04:53:21;;;;;;;3.38;2.97;;;18.00;99.90;;;;;;5447942;26;19991;-64
2024/04/09 04:55:49;;;;;;;5.20;2.90;;;18.00;99.90;;;;;;5447602;26;19998;-64
2024/04/09 04:58:15;;;;;;;8.82;3.25;;;18.10;99.90;;;;;;5447839;26;20002;-64
2024/04/09 05:00:41;;;;;;;4.78;3.15;;;18.00;99.90;;;;;;5446842;26;20013;-65
2024/04/09 05:03:07;;;;;;;4.53;3.00;;;18.10;99.90;;;;;;5446940;26;20002;-64
2024/04/09 05:05:33;;;;;;;3.67;2.88;;;18.10;99.90;;;;;;5448462;26;19999;-64
2024/04/09 05:07:59;;;;;;;3.35;2.97;;;18.10;99.90;;;;;;5445934;26;19994;-64
2024/04/09 05:10:26;;;;;;;4.22;2.83;;;18.10;99.90;;;;;;5448127;26;20003;-64
2024/04/09 05:12:53;;;;;;;4.80;2.90;;;18.10;99.90;;;;;;5447259;26;20011;-64
2024/04/09 05:15:19;;;;;;;4.13;3.10;;;18.10;99.90;;;;;;5447895;26;20095;-64
2024/04/09 05:17:46;;;;;;;6.97;3.08;;;18.10;99.90;;;;;;5445958;26;20130;-65
2024/04/09 05:20:14;;;;;;;8.10;3.75;;;18.10;99.90;;;;;;5450166;26;20064;-64
2024/04/09 05:22:47;;;;;;;5.22;3.55;;;18.20;99.90;;;;;;5444083;26;20009;-64
2024/04/09 05:25:15;;;;;;;7.95;3.45;;;18.20;99.90;;;;;;5446634;26;20002;-65
2024/04/09 05:27:41;;;;;;;4.63;3.47;;;18.20;99.90;;;;;;5445135;26;20030;-64
2024/04/09 05:30:11;;;;;;;6.55;3.80;;;18.20;99.90;;;;;;5447734;26;20045;-63
2024/04/09 05:32:39;;;;;;;8.93;3.50;;;18.20;99.90;;;;;;5447382;26;20026;-64
2024/04/09 05:35:09;;;;;;;8.00;3.53;;;18.30;99.90;;;;;;5445476;26;20501;-64
2024/04/09 05:37:35;;;;;;;9.40;3.58;;;18.30;99.90;;;;;;5447838;26;20838;-64
2024/04/09 05:40:02;;;;;;;8.88;3.80;;;18.30;99.90;;;;;;5446703;26;19999;-64
2024/04/09 05:42:28;;;;;;;10.57;3.92;;;18.30;99.90;;;;;;5447907;26;19995;-64
2024/04/09 05:44:53;;;;;;;7.60;3.67;;;18.30;99.90;;;;;;5444624;26;19994;-65
2024/04/09 05:47:19;;;;;;;8.93;4.28;;;18.40;99.90;;;;;;5448530;26;20011;-64
2024/04/09 05:49:47;;;;;;;9.75;4.45;;;18.40;99.90;;;;;;5446557;26;20006;-67
2024/04/09 05:52:12;;;;;;;6.13;4.10;;;18.40;99.90;;;;;;5448457;26;19995;-66
2024/04/09 05:54:41;;;;;;;8.77;4.22;;;18.40;99.90;;;;;;5448314;26;20006;-65
2024/04/09 05:57:06;;;;;;;6.15;4.30;;;18.40;99.90;;;;;;5445822;26;19999;-68
2024/04/09 05:59:34;;;;;;;7.47;5.25;;;18.40;99.90;;;;;;5445009;26;20527;-67
2024/04/09 06:02:00;;;;;;;7.05;3.78;;;18.50;99.90;;;;;;5445809;26;19999;-67
2024/04/09 06:04:26;;;;;;;8.57;3.90;;;18.50;99.90;;;;;;5442967;26;20586;-67
2024/04/09 06:06:52;;;;;;;8.45;3.83;;;18.50;99.90;;;;;;5443843;26;19994;-67
2024/04/09 06:09:17;;;;;;;7.47;3.75;;;18.50;99.90;;;;;;5415509;26;20001;-67
2024/04/09 06:11:43;;;;;;;11.65;3.90;;;18.50;99.90;;;;;;5445466;26;19995;-67
2024/04/09 06:14:09;;;;;;;5.57;3.78;;;18.50;99.90;;;;;;5444968;26;20006;-67
2024/04/09 06:16:35;;;;;;;5.90;4.53;;;18.60;99.90;;;;;;5445914;26;20593;-67
2024/04/09 06:19:00;;;;;;;6.10;4.13;;;18.60;99.90;;;;;;5446197;26;21042;-67
2024/04/09 06:21:26;;;;;;;8.98;4.50;;;18.60;99.90;;;;;;5445471;26;20005;-67
2024/04/09 06:23:52;;;;;;;8.57;4.18;;;18.70;99.90;;;;;;5444340;26;20006;-67
2024/04/09 06:26:20;;;;;;;6.93;4.35;;;18.70;99.90;;;;;;5446138;26;20294;-67
2024/04/09 06:28:46;;;;;;;5.85;3.80;;;18.70;99.90;;;;;;5445447;26;20018;-67
2024/04/09 06:31:12;;;;;;;9.00;4.72;;;18.70;99.90;;;;;;5442966;26;20690;-67
2024/04/09 06:33:39;;;;;;;7.75;3.92;;;18.80;99.90;;;;;;5444975;26;20005;-67
2024/04/09 06:36:05;;;;;;;7.10;4.00;;;18.80;99.90;;;;;;5446644;26;20020;-67
2024/04/09 06:38:31;;;;;;;6.85;4.95;;;18.90;99.90;;;;;;5444923;26;20081;-67
2024/04/09 06:40:57;;;;;;;8.27;4.63;;;19.00;99.90;;;;;;5442728;26;20001;-67
2024/04/09 06:43:23;;;;;;;9.38;4.85;;;19.00;99.90;;;;;;5442375;26;20045;-69
2024/04/09 06:45:49;;;;;;;9.52;5.13;;;19.10;99.90;;;;;;5443990;26;19999;-70
2024/04/09 06:48:14;;;;;;;9.13;5.20;;;19.30;99.90;;;;;;5444512;26;19995;-70
2024/04/09 06:50:41;;;;;;;7.78;4.65;;;19.40;99.90;;;;;;5444007;26;20417;-70
2024/04/09 06:53:07;;;;;;;10.52;5.72;;;19.60;99.90;;;;;;5442854;26;20010;-70
2024/04/09 06:55:33;;;;;;;9.60;5.32;;;19.90;99.90;;;;;;5446379;26;21184;-68
2024/04/09 06:57:59;;;;;;;11.48;5.60;;;20.10;99.90;;;;;;5444828;26;19995;-68
2024/04/09 07:00:25;;;;;;;7.50;5.05;;;20.30;99.90;;;;;;5441571;26;20009;-68
2024/04/09 07:02:52;;;;;;;7.32;5.43;;;20.60;99.90;;;;;;5441662;26;20048;-70
2024/04/09 07:05:19;;;;;;;11.65;5.25;;;20.80;99.40;;;;;;5445114;26;20049;-68
2024/04/09 07:07:44;;;;;;;7.88;5.07;;;21.00;99.10;;;;;;5444841;26;19991;-68
2024/04/09 07:10:12;;;;;;;9.95;5.90;;;21.20;98.70;;;;;;5440940;26;20009;-67
2024/04/09 07:12:38;;;;;;;8.98;5.70;;;21.30;98.30;;;;;;5443834;26;20005;-68
2024/04/09 07:15:04;;;;;;;9.13;5.10;;;21.50;97.80;;;;;;5443836;26;20026;-67
2024/04/09 07:17:30;;;;;;;8.13;5.38;;;21.80;97.40;;;;;;5444801;26;20372;-68
2024/04/09 07:19:58;;;;;;;7.18;4.68;;;22.00;96.80;;;;;;5440643;26;20003;-68
2024/04/09 07:22:25;;;;;;;8.55;5.57;;;22.30;96.50;;;;;;5444242;26;20052;-67
2024/04/09 07:24:51;;;;;;;7.90;4.63;;;22.60;96.00;;;;;;5442813;26;19995;-68
2024/04/09 07:27:17;;;;;;;7.40;4.70;;;22.80;95.40;;;;;;5445473;26;20130;-66
2024/04/09 07:29:43;;;;;;;8.13;5.00;;;22.90;95.20;;;;;;5442743;26;20045;-67
2024/04/09 07:32:11;;;;;;;5.22;4.43;;;23.10;95.00;;;;;;5443601;26;20066;-67
2024/04/09 07:34:37;;;;;;;9.25;4.18;;;23.20;94.80;;;;;;5441338;26;19995;-67
2024/04/09 07:37:02;;;;;;;9.75;4.43;;;23.40;94.60;;;;;;5442744;26;20369;-67
2024/04/09 07:39:28;;;;;;;7.78;4.30;;;23.50;94.30;;;;;;5442839;26;20766;-67
2024/04/09 07:41:55;;;;;;;6.93;3.35;;;23.50;94.20;;;;;;5443900;26;20969;-68
2024/04/09 07:44:20;;;;;;;8.82;4.50;;;23.70;93.90;;;;;;5445962;26;19999;-68
2024/04/09 07:46:49;;;;;;;6.53;3.83;;;23.90;94.00;;;;;;5447709;26;20544;-68
2024/04/09 07:49:16;;;;;;;10.05;3.60;;;24.00;93.00;;;;;;5447903;26;20128;-68
2024/04/09 07:51:42;;;;;;;4.38;3.03;;;24.20;92.40;;;;;;5447492;26;20767;-68
2024/04/09 07:54:11;;;;;;;6.05;3.42;;;24.30;92.40;;;;;;5447351;26;20474;-67
2024/04/09 07:56:38;;;;;;;6.82;3.00;;;24.40;92.10;;;;;;5413184;26;20009;-67
2024/04/09 07:59:03;;;;;;;5.25;3.17;;;24.60;91.30;;;;;;5446434;26;20242;-67
2024/04/09 08:01:30;;;;;;;4.43;3.03;;;24.70;91.20;;;;;;5404103;26;20792;-67
2024/04/09 08:03:56;;;;;;;8.07;3.22;;;24.70;91.10;;;;;;5439789;26;20010;-67
2024/04/09 08:06:24;;;;;;;6.95;2.92;;;24.80;90.70;;;;;;5447025;26;20054;-67
2024/04/09 08:08:51;;;;;;;6.72;3.20;;;24.80;90.70;;;;;;5445288;26;20007;-67
2024/04/09 08:11:17;;;;;;;5.47;3.30;;;25.00;90.90;;;;;;5447030;26;20001;-67
2024/04/09 08:13:42;;;;;;;5.18;2.70;;;25.10;91.00;;;;;;5445506;26;20006;-68
2024/04/09 08:16:08;;;;;;;7.55;2.72;;;25.30;90.00;;;;;;5446810;26;20064;-67
2024/04/09 08:18:35;;;;;;;5.25;2.80;;;25.40;90.70;;;;;;5446390;26;19999;-67
2024/04/09 08:21:01;;;;;;;4.63;2.85;;;25.60;89.20;;;;;;5446094;26;20040;-67
2024/04/09 08:23:27;;;;;;;5.72;3.00;;;25.90;88.10;;;;;;5445912;26;20473;-67
2024/04/09 08:25:52;;;;;;;7.18;3.10;;;26.10;88.20;;;;;;5445289;26;20013;-67
2024/04/09 08:28:19;;;;;;;4.20;2.72;;;26.30;85.40;;;;;;5446057;26;19998;-67
2024/04/09 08:30:45;;;;;;;9.27;2.90;;;26.40;86.70;;;;;;5446299;26;19991;-67
2024/04/09 08:33:12;;;;;;;4.13;2.80;;;26.60;84.60;;;;;;5446745;26;20459;-67
2024/04/09 08:35:44;;;;;;;6.50;2.60;;;26.40;84.90;;;;;;5445304;26;20009;-64
2024/04/09 08:38:10;;;;;;;4.68;2.75;;;26.40;85.20;;;;;;5443944;26;19998;-64
2024/04/09 08:40:36;;;;;;;7.18;2.88;;;26.40;85.80;;;;;;5446491;26;20466;-64
2024/04/09 08:43:02;;;;;;;3.22;2.35;;;26.50;83.70;;;;;;5445749;26;20006;-64
2024/04/09 08:45:30;;;;;;;3.30;2.60;;;26.30;84.60;;;;;;5413085;26;20003;-65
2024/04/09 08:47:59;;;;;;;7.03;2.45;;;26.30;83.80;;;;;;5444643;26;20015;-64
2024/04/09 08:50:25;;;;;;;4.63;2.90;;;26.20;83.80;;;;;;5444539;26;20604;-64
2024/04/09 08:52:57;;;;;;;6.57;2.63;;;26.10;83.90;;;;;;5444992;26;20083;-64
2024/04/09 08:55:24;;;;;;;5.65;2.55;;;26.10;83.40;;;;;;5444848;26;20502;-67
2024/04/09 08:57:49;;;;;;;6.57;2.78;;;26.00;84.20;;;;;;5444620;26;20003;-67
2024/04/09 09:00:18;;;;;;;4.13;2.15;;;26.20;84.70;;;;;;5444932;26;19999;-67
2024/04/09 09:02:44;;;;;;;7.05;2.47;;;26.30;82.70;;;;;;5443488;26;19999;-68
2024/04/09 09:05:17;;;;;;;5.38;2.50;;;26.80;82.50;;;;;;5443369;26;19999;-67
2024/04/09 09:07:43;;;;;;;5.15;3.47;;;27.10;81.60;;;;;;5443803;26;20481;-67
2024/04/09 09:10:11;;;;;;;3.38;2.15;;;27.20;80.30;;;;;;5445668;26;20014;-67
2024/04/09 09:12:37;;;;;;;7.78;2.22;;;27.30;79.60;;;;;;5443259;26;19994;-67
2024/04/09 09:15:04;;;;;;;4.10;2.47;;;27.20;78.80;;;;;;5445207;26;19994;-67
2024/04/09 09:17:31;;;;;;;9.68;2.83;;;27.10;79.80;;;;;;5446244;26;20050;-67
2024/04/09 09:19:58;;;;;;;12.50;2.60;;;27.10;80.20;;;;;;5445686;26;20014;-67
2024/04/09 09:22:24;;;;;;;9.95;2.80;;;27.10;80.20;;;;;;5414053;26;20003;-67
2024/04/09 09:25:15;;;;;;;4.05;2.30;;;27.30;79.30;;;;;;5445401;26;20043;-67
2024/04/09 09:27:43;;;;;;;3.15;2.30;;;27.40;79.70;;;;;;5445593;26;20419;-67
2024/04/09 09:30:09;;;;;;;3.90;2.38;;;27.60;80.30;;;;;;5443472;26;19998;-66
2024/04/09 09:32:40;;;;;;;6.55;2.55;;;27.70;80.00;;;;;;5446502;26;20018;-67
2024/04/09 09:35:12;;;;;;;5.10;2.50;;;27.90;79.40;;;;;;5444436;26;20013;-67
2024/04/09 09:37:38;;;;;;;7.75;2.00;;;27.80;77.30;;;;;;5444260;26;19998;-67
2024/04/09 09:40:07;;;;;;;6.05;2.10;;;27.80;77.70;;;;;;5444862;26;19999;-67
2024/04/09 09:42:34;;;;;;;7.15;2.50;;;27.70;77.30;;;;;;5445010;26;20002;-67
2024/04/09 09:45:06;;;;;;;6.57;2.22;;;27.60;77.20;;;;;;5444621;26;19994;-67
2024/04/09 09:47:37;;;;;;;4.65;2.03;;;27.50;78.50;;;;;;5447267;26;20017;-67
2024/04/09 09:50:08;;;;;;;4.38;2.20;;;27.60;78.50;;;;;;5446911;26;20002;-67
2024/04/09 09:52:34;;;;;;;5.13;2.40;;;27.80;79.80;;;;;;5447492;26;20017;-67
2024/04/09 09:55:00;;;;;;;4.55;2.10;;;28.00;77.30;;;;;;5445301;26;20013;-67
2024/04/09 09:57:30;;;;;;;6.05;3.08;;;28.00;77.60;;;;;;5444210;26;19999;-67
2024/04/09 10:00:00;;;;;;;8.00;2.50;;;28.20;77.90;;;;;;5442821;26;20862;-67
2024/04/09 10:02:29;;;;;;;7.10;2.58;;;28.20;79.50;;;;;;5438749;26;20947;-67
2024/04/09 10:04:59;;;;;;;5.45;2.22;;;28.10;76.00;;;;;;5438496;26;19995;-67
2024/04/09 10:07:27;;;;;;;8.30;2.05;;;28.00;74.90;;;;;;5439087;26;19995;-67
2024/04/09 10:09:53;;;;;;;7.40;2.30;;;27.80;74.00;;;;;;5442972;26;19994;-67
2024/04/09 10:12:19;;;;;;;9.60;1.67;;;27.70;74.20;;;;;;5442006;26;20575;-67
2024/04/09 10:14:45;;;;;;;8.02;1.85;;;27.70;74.10;;;;;;5442484;26;19991;-67
2024/04/09 10:17:11;;;;;;;8.90;1.88;;;27.80;74.00;;;;;;5442599;26;20006;-67
2024/04/09 10:19:37;;;;;;;8.52;1.85;;;27.90;74.40;;;;;;5446275;26;20053;-67
2024/04/09 10:22:03;;;;;;;8.18;2.00;;;28.10;76.60;;;;;;5441684;26;20588;-67
2024/04/09 10:24:34;;;;;;;11.85;2.08;;;28.20;76.00;;;;;;5443331;26;20368;-67
2024/04/09 10:27:00;;;;;;;6.72;2.30;;;28.20;74.60;;;;;;5442157;26;20003;-67
2024/04/09 10:29:29;;;;;;;4.55;2.20;;;28.10;74.70;;;;;;5442445;26;20021;-67
2024/04/09 10:31:55;;;;;;;5.97;2.00;;;28.00;74.50;;;;;;5440577;26;20010;-67
2024/04/09 10:34:24;;;;;;;5.22;2.15;;;28.10;75.40;;;;;;5443386;26;20002;-67
2024/04/09 10:36:55;;;;;;;6.53;1.98;;;28.20;74.60;;;;;;5440254;26;20007;-66
2024/04/09 10:39:21;;;;;;;8.98;2.35;;;28.30;73.50;;;;;;5443106;26;20003;-67
2024/04/09 10:41:56;;;;;;;6.25;1.95;;;28.20;73.10;;;;;;5440456;26;20045;-67
2024/04/09 10:44:26;;;;;;;9.38;1.80;;;28.10;74.50;;;;;;5442660;26;20039;-67
2024/04/09 10:46:52;;;;;;;6.82;2.05;;;28.00;72.40;;;;;;5440923;26;20069;-67
2024/04/09 10:49:18;;;;;;;10.65;2.42;;;28.10;75.30;;;;;;5442917;26;20086;-67
2024/04/09 10:51:48;;;;;;;9.45;2.35;;;28.10;73.90;;;;;;5440891;26;20412;-67
2024/04/09 10:54:15;;;;;;;6.60;2.00;;;28.00;73.00;;;;;;5464651;26;20031;-67
2024/04/09 10:56:41;;;;;;;6.00;2.08;;;27.80;73.10;;;;;;5441548;26;19994;-67
2024/04/09 10:59:21;;;;;;;10.52;2.22;;;27.70;73.20;;;;;;5441992;26;20479;-66
2024/04/09 11:01:47;;;;;;;6.35;1.90;;;27.80;74.00;;;;;;5438211;26;20126;-67
2024/04/09 11:04:14;;;;;;;7.90;2.35;;;28.00;72.00;;;;;;5442470;26;19991;-68
2024/04/09 11:06:42;;;;;;;4.90;1.90;;;28.20;72.50;;;;;;5441219;26;19991;-67
2024/04/09 11:09:08;;;;;;;7.95;2.05;;;28.40;73.00;;;;;;5441152;26;19998;-67
2024/04/09 11:11:40;;;;;;;5.80;2.08;;;28.40;73.30;;;;;;5441334;26;20041;-67
2024/04/09 11:14:07;;;;;;;7.63;2.13;;;28.30;74.20;;;;;;5442122;26;20006;-67
2024/04/09 11:16:33;;;;;;;7.43;2.30;;;28.20;74.20;;;;;;5440535;26;20072;-67
2024/04/09 11:19:00;;;;;;;4.40;2.08;;;28.00;73.60;;;;;;5442300;26;20010;-67
2024/04/09 11:21:32;;;;;;;12.27;2.80;;;27.80;74.70;;;;;;5440368;26;20558;-67
2024/04/09 11:23:58;;;;;;;11.82;2.53;;;27.80;76.50;;;;;;5441681;26;20008;-67
2024/04/09 11:26:25;;;;;;;13.98;2.70;;;27.80;73.40;;;;;;5441116;26;20014;-67
2024/04/09 11:28:52;;;;;;;8.88;2.53;;;27.70;75.50;;;;;;5440640;26;20013;-67
2024/04/09 11:31:22;;;;;;;6.53;2.20;;;27.70;75.70;;;;;;5441254;26;20113;-67
2024/04/09 11:33:49;;;;;;;7.28;2.55;;;27.60;76.20;;;;;;5440263;26;20036;-67
2024/04/09 11:36:15;;;;;;;12.38;2.42;;;27.70;77.70;;;;;;5440632;26;19995;-67
2024/04/09 11:38:41;;;;;;;8.32;2.63;;;27.70;74.80;;;;;;5439372;26;20779;-66
2024/04/09 11:41:10;;;;;;;6.60;2.45;;;27.60;77.40;;;;;;5439118;26;20014;-67
2024/04/09 11:43:36;;;;;;;5.32;2.20;;;27.60;76.00;;;;;;5439105;26;19995;-67
2024/04/09 11:46:02;;;;;;;14.55;3.13;;;27.70;76.40;;;;;;5441532;26;20002;-67
2024/04/09 11:48:28;;;;;;;9.30;2.10;;;27.80;76.80;;;;;;5448225;26;20824;-67
2024/04/09 11:50:54;;;;;;;11.77;2.47;;;27.80;75.80;;;;;;5445545;26;19994;-67
2024/04/09 11:53:20;;;;;;;6.03;2.35;;;27.90;77.40;;;;;;5454868;26;20018;-67
2024/04/09 11:55:46;;;;;;;9.73;2.88;;;28.10;76.60;;;;;;5441431;26;19995;-67
2024/04/09 11:58:12;;;;;;;10.70;3.35;;;28.30;77.30;;;;;;5443557;26;20009;-67
2024/04/09 12:00:38;;;;;;;8.43;2.80;;;28.50;77.90;;;;;;5437672;26;19995;-67
2024/04/09 12:03:05;;;;;;;7.07;2.60;;;28.60;77.80;;;;;;5441034;26;20021;-67
2024/04/09 12:05:31;;;;;;;5.72;2.67;;;28.70;77.50;;;;;;5443115;26;20070;-67
2024/04/09 12:07:59;;;;;;;5.88;2.92;;;28.80;76.80;;;;;;5445931;26;20079;-67
2024/04/09 12:10:25;;;;;;;4.78;2.60;;;28.80;75.90;;;;;;5453308;26;20286;-67
2024/04/09 12:12:51;;;;;;;5.93;2.97;;;28.80;75.30;;;;;;5449905;26;20009;-67
2024/04/09 12:15:18;;;;;;;8.73;3.10;;;28.70;73.30;;;;;;5440973;26;20084;-67
2024/04/09 12:17:44;;;;;;;7.00;2.25;;;28.60;75.80;;;;;;5444462;26;20506;-67
2024/04/09 12:20:10;;;;;;;12.00;2.78;;;28.50;76.40;;;;;;5454803;26;19999;-67
2024/04/09 12:22:36;;;;;;;15.18;3.13;;;28.50;76.60;;;;;;5443917;26;20002;-67
2024/04/09 12:25:02;;;;;;;6.72;2.92;;;28.30;74.70;;;;;;5442286;26;20404;-67
2024/04/09 12:27:29;;;;;;;10.18;3.13;;;28.20;75.40;;;;;;5452523;26;20438;-67
2024/04/09 12:29:54;;;;;;;18.02;3.70;;;28.00;76.00;;;;;;5442477;26;20003;-67
2024/04/09 12:32:21;;;;;;;13.70;3.20;;;27.90;71.00;;;;;;5445334;26;20005;-67
2024/04/09 12:34:47;;;;;;;19.63;4.13;;;27.70;71.90;;;;;;5445559;26;20043;-67
2024/04/09 12:37:13;;;;;;;15.68;3.45;;;27.50;71.50;;;;;;5453188;26;20030;-67
2024/04/09 12:39:39;;;;;;;20.17;4.15;;;27.30;69.40;;;;;;5448726;26;20009;-67
2024/04/09 12:42:05;;;;;;;19.08;3.35;;;27.10;65.70;;;;;;5448735;26;20270;-67
2024/04/09 12:44:31;;;;;;;17.73;3.92;;;27.00;66.70;;;;;;5451664;26;20006;-67